Time;durP1;ratioP1;P1;durP2;ratioP2;P2;SDS_P1;SDS_P2;PMS_P1;PMS_P2;Temp;Humidity;BMP_temperature;BMP_pressure;BME280_temperature;BME280_humidity;BME280_pressure;Samples;Min_cycle;Max_cycle;Signal;HPM_P1;HPM_P2
2022/09/06 00:00:09;;;;;;;5.80;5.00;;;20.40;99.90;;;;;;4987651;28;20298;-90
2022/09/06 00:02:35;;;;;;;5.87;4.90;;;20.40;99.90;;;;;;5009058;28;20578;-91
2022/09/06 00:05:01;;;;;;;6.20;5.17;;;20.40;99.90;;;;;;4979017;28;20649;-88
2022/09/06 00:07:26;;;;;;;7.20;5.27;;;20.30;99.90;;;;;;5013604;28;20180;-86
2022/09/06 00:09:53;;;;;;;6.37;5.43;;;20.10;99.90;;;;;;4999311;28;20219;-86
2022/09/06 00:12:19;;;;;;;6.67;5.33;;;20.00;99.90;;;;;;4980927;28;20238;-86
2022/09/06 00:14:44;;;;;;;6.20;5.60;;;19.90;99.90;;;;;;5004635;28;20238;-87
2022/09/06 00:17:11;;;;;;;5.57;4.70;;;19.60;99.90;;;;;;5017210;28;20692;-87
2022/09/06 00:19:36;;;;;;;6.80;5.27;;;19.30;99.90;;;;;;5000301;28;20176;-88
2022/09/06 00:22:02;;;;;;;6.63;5.90;;;19.10;99.90;;;;;;4983534;28;20299;-86
2022/09/06 00:24:28;;;;;;;5.10;4.60;;;19.00;99.90;;;;;;4999457;28;20669;-88
2022/09/06 00:26:54;;;;;;;6.20;5.37;;;18.90;99.90;;;;;;4999603;28;20223;-89
2022/09/06 00:29:19;;;;;;;5.70;5.20;;;18.80;99.90;;;;;;4999759;28;20650;-90
2022/09/06 00:31:45;;;;;;;6.30;5.57;;;18.70;99.90;;;;;;4999851;28;20187;-91
2022/09/06 00:34:11;;;;;;;9.73;4.93;;;18.70;99.90;;;;;;5017444;28;20202;-90
2022/09/06 00:36:37;;;;;;;6.63;5.80;;;18.70;99.90;;;;;;4983441;28;20231;-89
2022/09/06 00:39:02;;;;;;;7.83;5.90;;;18.70;99.90;;;;;;5032385;28;20688;-91
2022/09/06 00:41:28;;;;;;;7.70;5.80;;;18.70;99.90;;;;;;5016719;28;20272;-90
2022/09/06 00:43:54;;;;;;;7.57;5.83;;;18.70;99.90;;;;;;4999492;28;20183;-91
2022/09/06 00:46:25;;;;;;;5.97;5.40;;;18.70;99.90;;;;;;4983840;28;20203;-91
2022/09/06 00:48:57;;;;;;;12.13;5.60;;;18.70;99.90;;;;;;5015700;28;20795;-90
2022/09/06 00:51:27;;;;;;;5.33;4.70;;;18.70;99.90;;;;;;5012182;28;20219;-89
2022/09/06 00:53:54;;;;;;;5.50;4.97;;;18.70;99.90;;;;;;5006176;28;20219;-89
2022/09/06 00:56:20;;;;;;;10.07;5.73;;;18.70;99.90;;;;;;5012231;28;20305;-88
2022/09/06 00:58:47;;;;;;;5.77;4.97;;;18.70;99.90;;;;;;5012383;28;20211;-86
2022/09/06 01:01:13;;;;;;;8.27;4.83;;;18.70;99.90;;;;;;4999750;28;20298;-87
2022/09/06 01:03:39;;;;;;;7.27;4.30;;;18.80;99.90;;;;;;4998761;28;20302;-89
2022/09/06 01:06:25;;;;;;;8.80;5.37;;;18.80;99.90;;;;;;4999011;28;20223;-87
2022/09/06 01:09:15;;;;;;;7.33;5.47;;;18.80;99.90;;;;;;5031734;28;20211;-90
2022/09/06 01:11:50;;;;;;;12.23;5.57;;;18.80;99.90;;;;;;5015196;28;20239;-88
2022/09/06 01:14:21;;;;;;;9.53;5.97;;;18.80;99.90;;;;;;5011770;28;20254;-91
2022/09/06 01:17:05;;;;;;;6.20;4.80;;;18.70;99.90;;;;;;4996952;28;20212;-86
2022/09/06 01:20:08;;;;;;;6.97;5.63;;;18.70;99.90;;;;;;5015007;28;20261;-89
2022/09/06 01:22:52;;;;;;;11.07;5.77;;;18.80;99.90;;;;;;5015048;28;20217;-88
2022/09/06 01:25:33;;;;;;;6.33;4.53;;;18.80;99.90;;;;;;5012087;28;20262;-91
2022/09/06 01:28:29;;;;;;;5.60;4.40;;;18.80;99.90;;;;;;5014702;28;20724;-88
2022/09/06 01:31:32;;;;;;;5.37;4.87;;;18.90;99.90;;;;;;5015669;28;20222;-88
2022/09/06 01:33:57;;;;;;;5.83;4.60;;;19.00;99.90;;;;;;5014922;28;20222;-88
2022/09/06 01:36:27;;;;;;;7.53;5.53;;;19.00;99.90;;;;;;5015727;28;20224;-87
2022/09/06 01:38:53;;;;;;;8.50;5.20;;;19.10;99.90;;;;;;5014952;28;20238;-87
2022/09/06 01:41:19;;;;;;;6.20;5.00;;;19.00;99.90;;;;;;4998230;28;20222;-87
2022/09/06 01:43:47;;;;;;;5.40;4.83;;;19.10;99.90;;;;;;5031880;28;20184;-88
2022/09/06 01:46:15;;;;;;;5.87;5.27;;;19.20;99.90;;;;;;5015819;28;20208;-86
2022/09/06 01:49:09;;;;;;;6.03;4.70;;;19.20;99.90;;;;;;5011083;28;20669;-86
2022/09/06 01:52:03;;;;;;;6.23;5.00;;;19.10;99.90;;;;;;5010970;28;20250;-88
2022/09/06 01:54:48;;;;;;;7.10;5.00;;;19.10;99.90;;;;;;5011080;28;20306;-87
2022/09/06 01:57:30;;;;;;;5.93;4.37;;;19.10;99.90;;;;;;5006720;28;20718;-89
2022/09/06 02:00:07;;;;;;;7.87;4.57;;;19.00;99.90;;;;;;5011481;28;20223;-87
2022/09/06 02:03:01;;;;;;;10.33;4.90;;;19.00;99.90;;;;;;5001504;28;20296;-89
2022/09/06 02:05:50;;;;;;;5.90;4.23;;;18.90;99.90;;;;;;5015602;28;20215;-93
2022/09/06 02:08:32;;;;;;;6.03;4.90;;;18.90;99.90;;;;;;5019855;28;20219;-91
2022/09/06 02:11:01;;;;;;;8.33;4.53;;;18.90;99.90;;;;;;5018878;28;20227;-90
2022/09/06 02:13:32;;;;;;;6.73;4.60;;;18.90;99.90;;;;;;5019873;28;20184;-92
2022/09/06 02:16:04;;;;;;;5.37;4.37;;;18.90;99.90;;;;;;5035954;28;20233;-87
2022/09/06 02:18:43;;;;;;;5.53;4.80;;;18.90;99.90;;;;;;5013068;28;20681;-89
2022/09/06 02:21:13;;;;;;;7.73;5.33;;;18.80;99.90;;;;;;5008566;28;20238;-88
2022/09/06 02:23:41;;;;;;;5.30;4.37;;;18.80;99.90;;;;;;5016712;28;20210;-89
2022/09/06 02:26:17;;;;;;;7.03;4.97;;;18.80;99.90;;;;;;4999008;28;20242;-89
2022/09/06 02:28:42;;;;;;;6.83;5.07;;;18.80;99.90;;;;;;5032413;28;20252;-88
2022/09/06 02:31:22;;;;;;;5.37;4.73;;;18.70;99.90;;;;;;5017035;28;20246;-90
2022/09/06 02:33:49;;;;;;;13.73;5.80;;;18.70;99.90;;;;;;5017190;28;20302;-90
2022/09/06 02:36:17;;;;;;;6.90;4.57;;;18.70;99.90;;;;;;5014099;28;20227;-91
2022/09/06 02:38:44;;;;;;;5.80;5.13;;;18.70;99.90;;;;;;4989763;28;20221;-91
2022/09/06 02:41:12;;;;;;;4.80;4.33;;;18.60;99.90;;;;;;5018234;28;20219;-89
2022/09/06 02:43:38;;;;;;;6.10;4.53;;;18.60;99.90;;;;;;5019035;28;20183;-90
2022/09/06 02:46:05;;;;;;;5.30;4.80;;;18.70;99.90;;;;;;5018261;28;20226;-91
2022/09/06 02:48:30;;;;;;;6.60;4.63;;;18.70;99.90;;;;;;5017426;28;20224;-91
2022/09/06 02:50:56;;;;;;;7.57;4.73;;;18.70;99.90;;;;;;5017081;28;20230;-90
2022/09/06 02:53:22;;;;;;;6.00;4.37;;;18.60;99.90;;;;;;5000542;28;20681;-88
2022/09/06 02:55:48;;;;;;;5.07;4.57;;;18.70;99.90;;;;;;5014432;28;20258;-88
2022/09/06 02:58:14;;;;;;;6.97;4.40;;;18.70;99.90;;;;;;5000355;28;20266;-89
2022/09/06 03:00:40;;;;;;;4.37;3.97;;;18.60;99.90;;;;;;5014321;28;20742;-87
2022/09/06 03:03:06;;;;;;;7.00;4.83;;;18.60;99.90;;;;;;5014406;28;20223;-88
2022/09/06 03:05:32;;;;;;;7.00;5.67;;;18.60;99.90;;;;;;5014175;28;20210;-87
2022/09/06 03:07:58;;;;;;;6.47;4.77;;;18.50;99.90;;;;;;5014129;28;20180;-87
2022/09/06 03:10:25;;;;;;;6.37;4.80;;;18.40;99.90;;;;;;4999579;28;20301;-91
2022/09/06 03:12:51;;;;;;;5.60;4.93;;;18.30;99.90;;;;;;4997861;28;20280;-86
2022/09/06 03:15:17;;;;;;;7.30;5.00;;;18.30;99.90;;;;;;4993965;28;20220;-88
2022/09/06 03:17:43;;;;;;;12.47;5.53;;;18.10;99.90;;;;;;4985472;28;20369;-87
2022/09/06 03:20:11;;;;;;;6.13;5.23;;;18.00;99.90;;;;;;5014178;28;20234;-86
2022/09/06 03:22:38;;;;;;;5.37;4.77;;;17.90;99.90;;;;;;5014112;28;20194;-87
2022/09/06 03:25:05;;;;;;;6.40;5.40;;;18.00;99.90;;;;;;5012572;28;20746;-89
2022/09/06 03:27:31;;;;;;;7.00;4.63;;;17.90;99.90;;;;;;5009058;28;20227;-87
2022/09/06 03:29:57;;;;;;;6.97;5.50;;;17.90;99.90;;;;;;4996531;28;20599;-88
2022/09/06 03:32:23;;;;;;;5.23;4.60;;;17.90;99.90;;;;;;4996191;28;20215;-88
2022/09/06 03:34:49;;;;;;;6.60;4.93;;;17.90;99.90;;;;;;5011888;28;20210;-88
2022/09/06 03:37:15;;;;;;;11.03;5.40;;;18.00;99.90;;;;;;4996584;28;20226;-88
2022/09/06 03:39:40;;;;;;;7.17;5.00;;;18.00;99.90;;;;;;5013362;28;20219;-88
2022/09/06 03:42:06;;;;;;;7.13;5.53;;;18.00;99.90;;;;;;4980058;28;20314;-89
2022/09/06 03:44:32;;;;;;;6.63;4.57;;;18.00;99.90;;;;;;5012181;28;20691;-90
2022/09/06 03:46:58;;;;;;;6.50;4.97;;;18.00;99.90;;;;;;4996114;28;20254;-88
2022/09/06 03:49:24;;;;;;;6.23;4.97;;;17.90;99.90;;;;;;5012776;28;20183;-88
2022/09/06 03:51:50;;;;;;;6.87;5.03;;;17.90;99.90;;;;;;4978967;28;20224;-88
2022/09/06 03:54:15;;;;;;;6.77;5.50;;;17.90;99.90;;;;;;4992397;28;20254;-86
2022/09/06 03:56:44;;;;;;;8.43;5.43;;;17.90;99.90;;;;;;4976166;28;20370;-91
2022/09/06 03:59:10;;;;;;;6.60;5.37;;;17.90;99.90;;;;;;4992653;28;20271;-86
2022/09/06 04:01:35;;;;;;;7.37;5.43;;;17.80;99.90;;;;;;4976642;28;20706;-88
2022/09/06 04:04:01;;;;;;;10.03;5.37;;;17.80;99.90;;;;;;4993583;28;20224;-88
2022/09/06 04:06:27;;;;;;;6.57;5.50;;;17.80;99.90;;;;;;4992306;28;20234;-88
2022/09/06 04:08:53;;;;;;;6.87;5.50;;;17.90;99.90;;;;;;4976254;28;20266;-88
2022/09/06 04:11:19;;;;;;;6.80;5.13;;;17.90;99.90;;;;;;4992084;28;20769;-87
2022/09/06 04:13:45;;;;;;;7.97;6.13;;;17.90;99.90;;;;;;4976951;28;20188;-86
2022/09/06 04:16:11;;;;;;;6.60;5.70;;;17.80;99.90;;;;;;4979873;28;20234;-88
2022/09/06 04:18:36;;;;;;;7.07;6.10;;;17.80;99.90;;;;;;5028333;28;20591;-87
2022/09/06 04:21:02;;;;;;;8.80;5.60;;;17.80;99.90;;;;;;4979316;28;20310;-87
2022/09/06 04:23:29;;;;;;;8.53;5.83;;;17.80;99.90;;;;;;4995586;28;20431;-87
2022/09/06 04:25:56;;;;;;;7.57;5.57;;;17.80;99.90;;;;;;4995569;28;20191;-88
2022/09/06 04:28:23;;;;;;;8.20;4.77;;;17.80;99.90;;;;;;5012599;28;20218;-90
2022/09/06 04:31:03;;;;;;;10.67;5.93;;;17.90;99.90;;;;;;4995193;28;20285;-88
2022/09/06 04:33:29;;;;;;;6.63;5.30;;;17.90;99.90;;;;;;4986844;28;20231;-89
2022/09/06 04:35:58;;;;;;;6.20;5.13;;;17.90;99.90;;;;;;5002247;28;20219;-87
2022/09/06 04:38:25;;;;;;;7.57;5.30;;;17.90;99.90;;;;;;5008688;28;20274;-88
2022/09/06 04:40:51;;;;;;;6.83;4.97;;;17.90;99.90;;;;;;4992520;28;20638;-88
2022/09/06 04:43:17;;;;;;;7.47;5.47;;;17.90;99.90;;;;;;4996214;28;20187;-89
2022/09/06 04:46:05;;;;;;;6.77;5.43;;;17.90;99.90;;;;;;4998560;28;20238;-87
2022/09/06 04:48:31;;;;;;;8.53;5.60;;;17.90;99.90;;;;;;5011458;28;20584;-91
2022/09/06 04:50:56;;;;;;;11.40;5.67;;;17.90;99.90;;;;;;4995521;28;20223;-86
2022/09/06 04:53:22;;;;;;;6.67;5.33;;;17.80;99.90;;;;;;4995368;28;20268;-84
2022/09/06 04:55:48;;;;;;;9.23;5.93;;;17.90;99.90;;;;;;5029808;28;20265;-86
2022/09/06 04:58:14;;;;;;;7.70;5.67;;;17.80;99.90;;;;;;4999630;28;20175;-86
2022/09/06 05:00:43;;;;;;;10.00;5.83;;;17.70;99.90;;;;;;4998873;28;20219;-86
2022/09/06 05:03:09;;;;;;;7.67;6.27;;;17.70;99.90;;;;;;5015323;28;20214;-85
2022/09/06 05:05:34;;;;;;;7.27;6.40;;;17.80;99.90;;;;;;4998441;28;20219;-85
2022/09/06 05:08:00;;;;;;;7.60;5.80;;;17.70;99.90;;;;;;4998782;28;20179;-85
2022/09/06 05:10:26;;;;;;;8.67;5.33;;;17.60;99.90;;;;;;5015195;28;20239;-88
2022/09/06 05:12:53;;;;;;;7.90;6.03;;;17.60;99.90;;;;;;5015797;28;20681;-88
2022/09/06 05:15:21;;;;;;;7.70;6.17;;;17.60;99.90;;;;;;4998778;28;20234;-87
2022/09/06 05:17:47;;;;;;;8.80;6.00;;;17.60;99.90;;;;;;5011400;28;20228;-88
2022/09/06 05:20:13;;;;;;;7.20;5.63;;;17.50;99.90;;;;;;4982831;28;20238;-87
2022/09/06 05:22:40;;;;;;;11.47;6.10;;;17.50;99.90;;;;;;5016196;28;20637;-88
2022/09/06 05:25:07;;;;;;;9.13;5.97;;;17.40;99.90;;;;;;4995300;28;20225;-87
2022/09/06 05:27:33;;;;;;;9.47;6.60;;;17.40;99.90;;;;;;5009628;28;20227;-92
2022/09/06 05:29:59;;;;;;;7.00;6.03;;;17.40;99.90;;;;;;5014620;28;20215;-87
2022/09/06 05:32:24;;;;;;;8.23;6.10;;;17.40;99.90;;;;;;5016491;28;20218;-86
2022/09/06 05:34:50;;;;;;;8.00;5.80;;;17.40;99.90;;;;;;4998422;28;20561;-86
2022/09/06 05:37:16;;;;;;;9.00;6.57;;;17.50;99.90;;;;;;5015877;28;20215;-88
2022/09/06 05:39:41;;;;;;;9.33;6.63;;;17.50;99.90;;;;;;4998415;28;20219;-87
2022/09/06 05:42:07;;;;;;;10.53;6.10;;;17.60;99.90;;;;;;4995352;28;20224;-89
2022/09/06 05:44:34;;;;;;;6.93;6.23;;;17.40;99.90;;;;;;5014814;28;20219;-89
2022/09/06 05:47:00;;;;;;;8.03;6.33;;;17.30;99.90;;;;;;5014709;28;20183;-85
2022/09/06 05:49:28;;;;;;;7.03;5.87;;;17.20;99.90;;;;;;4998685;28;20180;-87
2022/09/06 05:51:54;;;;;;;8.43;6.03;;;17.20;99.90;;;;;;5014758;28;20219;-87
2022/09/06 05:54:20;;;;;;;7.67;6.13;;;17.10;99.90;;;;;;5014641;28;20302;-88
2022/09/06 05:56:45;;;;;;;9.23;7.27;;;17.10;99.90;;;;;;4997726;28;20254;-89
2022/09/06 05:59:11;;;;;;;9.30;5.90;;;17.10;99.90;;;;;;5014260;28;20669;-89
2022/09/06 06:01:49;;;;;;;9.93;6.33;;;17.00;99.90;;;;;;4998691;28;20206;-89
2022/09/06 06:04:17;;;;;;;11.63;7.43;;;17.00;99.90;;;;;;5031361;28;20211;-91
2022/09/06 06:06:44;;;;;;;8.23;7.13;;;17.00;99.90;;;;;;4995877;28;20630;-91
2022/09/06 06:09:10;;;;;;;8.80;6.53;;;16.90;99.90;;;;;;5007083;28;20249;-90
2022/09/06 06:11:36;;;;;;;7.60;5.63;;;17.00;99.90;;;;;;4994640;28;20231;-93
2022/09/06 06:14:03;;;;;;;10.43;7.60;;;17.00;99.90;;;;;;4997775;28;20184;-90
2022/09/06 06:16:29;;;;;;;9.57;6.37;;;17.00;99.90;;;;;;5015871;28;20215;-91
2022/09/06 06:18:55;;;;;;;9.37;6.60;;;17.00;99.90;;;;;;5010779;28;20220;-89
2022/09/06 06:21:26;;;;;;;11.73;7.50;;;17.10;99.90;;;;;;5007317;28;20627;-91
2022/09/06 06:23:57;;;;;;;12.37;6.83;;;17.20;99.90;;;;;;5010909;28;20216;-93
2022/09/06 06:26:24;;;;;;;14.47;7.17;;;17.20;99.90;;;;;;5002201;28;20227;-94
2022/09/06 06:28:50;;;;;;;8.83;6.30;;;17.20;99.90;;;;;;5016467;28;20196;-92
2022/09/06 06:31:18;;;;;;;9.40;6.60;;;17.20;99.90;;;;;;5015719;28;20183;-92
2022/09/06 06:33:44;;;;;;;10.27;6.73;;;17.20;99.90;;;;;;5014053;28;20211;-93
2022/09/06 06:36:12;;;;;;;10.77;7.10;;;17.30;99.90;;;;;;5017853;28;20230;-91
2022/09/06 06:38:43;;;;;;;9.57;5.83;;;17.30;99.90;;;;;;5014433;28;20665;-92
2022/09/06 06:41:11;;;;;;;7.37;5.93;;;17.30;99.90;;;;;;5016631;28;20222;-95
2022/09/06 06:43:37;;;;;;;10.67;7.30;;;17.20;99.90;;;;;;5015325;28;20230;-89
2022/09/06 06:46:08;;;;;;;9.60;7.30;;;17.20;99.90;;;;;;5016388;28;20227;-92
2022/09/06 06:48:35;;;;;;;9.20;6.90;;;17.20;99.90;;;;;;5010503;28;20712;-89
2022/09/06 06:51:01;;;;;;;10.40;6.60;;;17.20;99.90;;;;;;4987897;28;20224;-88
2022/09/06 06:53:27;;;;;;;10.03;7.07;;;17.40;99.90;;;;;;4996847;28;20293;-95
2022/09/06 06:55:53;;;;;;;10.00;6.40;;;17.50;99.90;;;;;;5017280;28;20455;-94
2022/09/06 06:58:20;;;;;;;11.10;7.77;;;17.60;99.90;;;;;;5018149;28;20191;-93
2022/09/06 07:00:46;;;;;;;10.10;7.43;;;18.40;99.90;;;;;;5014294;28;20239;-90
2022/09/06 07:03:12;;;;;;;9.33;7.03;;;20.00;99.90;;;;;;5013739;28;20258;-89
2022/09/06 07:05:39;;;;;;;8.17;6.93;;;21.10;99.90;;;;;;4997651;28;20207;-87
2022/09/06 07:08:06;;;;;;;10.17;6.23;;;21.80;99.90;;;;;;5014221;28;20199;-86
2022/09/06 07:10:32;;;;;;;8.60;6.37;;;22.20;99.90;;;;;;4997524;28;20582;-91
2022/09/06 07:12:58;;;;;;;6.50;5.60;;;22.30;99.90;;;;;;5014033;28;20563;-91
2022/09/06 07:15:24;;;;;;;7.67;5.53;;;22.00;99.90;;;;;;5013021;28;20234;-89
2022/09/06 07:17:51;;;;;;;8.40;6.30;;;22.20;99.90;;;;;;5013308;28;20219;-90
2022/09/06 07:20:19;;;;;;;7.43;6.17;;;22.20;99.90;;;;;;4996987;28;20239;-87
2022/09/06 07:22:45;;;;;;;9.23;6.40;;;22.40;99.90;;;;;;5014090;28;20175;-89
2022/09/06 07:25:12;;;;;;;8.25;6.40;;;22.80;99.90;;;;;;4993533;28;20566;-90
2022/09/06 07:27:38;;;;;;;7.77;5.60;;;22.40;99.90;;;;;;4993760;28;20223;-87
2022/09/06 07:30:04;;;;;;;14.23;8.98;;;22.30;99.90;;;;;;4993156;28;20692;-86
2022/09/06 07:32:33;;;;;;;7.15;5.50;;;22.20;99.90;;;;;;4992709;28;20219;-86
2022/09/06 07:34:59;;;;;;;6.90;6.18;;;22.00;99.90;;;;;;4992848;28;20186;-88
2022/09/06 07:37:24;;;;;;;6.45;5.32;;;22.20;99.90;;;;;;4977028;28;20208;-86
2022/09/06 07:39:50;;;;;;;8.10;6.15;;;22.20;99.90;;;;;;4992520;28;20270;-88
2022/09/06 07:42:16;;;;;;;7.20;6.18;;;22.10;99.90;;;;;;4976826;28;20224;-88
2022/09/06 07:44:41;;;;;;;11.32;6.43;;;22.90;99.90;;;;;;4976474;28;20243;-88
2022/09/06 07:47:09;;;;;;;8.00;5.93;;;23.40;99.90;;;;;;4992634;28;20599;-87
2022/09/06 07:49:34;;;;;;;8.85;6.30;;;23.80;99.90;;;;;;4993134;28;20638;-87
2022/09/06 07:52:00;;;;;;;7.07;6.35;;;23.40;99.90;;;;;;4976144;28;20227;-90
2022/09/06 07:54:26;;;;;;;7.07;6.35;;;22.90;99.90;;;;;;4970635;28;20223;-88
2022/09/06 07:56:52;;;;;;;7.80;6.97;;;22.90;99.90;;;;;;5001342;28;20227;-88
2022/09/06 07:59:17;;;;;;;8.15;6.18;;;23.70;99.90;;;;;;5012175;28;20211;-88
2022/09/06 08:01:43;;;;;;;7.63;6.38;;;25.00;99.90;;;;;;5012625;28;20210;-88
2022/09/06 08:04:11;;;;;;;6.90;6.20;;;25.20;99.90;;;;;;4976382;28;20231;-90
2022/09/06 08:06:40;;;;;;;8.23;6.65;;;25.00;99.90;;;;;;4976594;28;20218;-90
2022/09/06 08:09:07;;;;;;;9.43;6.35;;;24.90;99.90;;;;;;4992672;28;20219;-90
2022/09/06 08:11:35;;;;;;;8.88;6.93;;;25.90;99.90;;;;;;4992367;28;20236;-89
2022/09/06 08:14:02;;;;;;;7.40;6.68;;;25.80;99.90;;;;;;4976444;28;20279;-89
2022/09/06 08:16:29;;;;;;;13.30;6.22;;;25.40;99.90;;;;;;4977058;28;20250;-87
2022/09/06 08:19:00;;;;;;;7.78;6.28;;;25.00;99.90;;;;;;5008338;28;20216;-89
2022/09/06 08:21:28;;;;;;;9.27;7.18;;;24.20;99.90;;;;;;5005864;28;20578;-87
2022/09/06 08:23:56;;;;;;;10.40;6.13;;;24.40;99.90;;;;;;5029961;28;20219;-92
2022/09/06 08:26:24;;;;;;;7.95;6.80;;;24.50;99.90;;;;;;5030054;28;20763;-91
2022/09/06 08:29:00;;;;;;;8.43;6.70;;;24.40;99.90;;;;;;5029515;28;20184;-91
2022/09/06 08:31:28;;;;;;;7.40;6.65;;;23.50;99.90;;;;;;5015693;28;20191;-89
2022/09/06 08:33:55;;;;;;;7.43;6.72;;;24.60;99.90;;;;;;5015956;28;20219;-89
2022/09/06 08:36:22;;;;;;;7.38;6.63;;;25.30;99.90;;;;;;5012356;28;20228;-88
2022/09/06 08:38:47;;;;;;;8.68;7.25;;;25.10;99.90;;;;;;5005424;28;20219;-91
2022/09/06 08:41:13;;;;;;;10.23;7.55;;;24.20;99.90;;;;;;4999688;28;20226;-92
2022/09/06 08:44:06;;;;;;;8.25;6.55;;;24.30;99.90;;;;;;5022195;28;20163;-87
2022/09/06 08:46:56;;;;;;;9.73;7.25;;;24.40;99.90;;;;;;5007728;28;20212;-85
2022/09/06 08:49:25;;;;;;;8.20;6.82;;;25.50;99.90;;;;;;4994088;28;20308;-87
2022/09/06 08:52:18;;;;;;;8.20;6.00;;;25.50;99.90;;;;;;5009390;28;20219;-87
2022/09/06 08:55:03;;;;;;;9.15;7.47;;;25.10;99.90;;;;;;5018187;28;20222;-87
2022/09/06 08:57:59;;;;;;;13.23;6.70;;;25.40;99.90;;;;;;5012060;28;20311;-88
2022/09/06 09:00:25;;;;;;;7.75;6.05;;;25.50;99.90;;;;;;5009346;28;20623;-91
2022/09/06 09:03:04;;;;;;;8.50;6.38;;;25.30;99.90;;;;;;5016128;28;20207;-91
2022/09/06 09:05:33;;;;;;;8.32;6.90;;;25.10;99.90;;;;;;5016244;28;20211;-88
2022/09/06 09:08:11;;;;;;;7.38;6.57;;;24.70;99.90;;;;;;5016287;28;20222;-90
2022/09/06 09:10:49;;;;;;;9.18;7.82;;;25.00;99.90;;;;;;5015607;28;20226;-88
2022/09/06 09:13:32;;;;;;;9.65;7.13;;;24.60;99.90;;;;;;5012102;28;20661;-87
2022/09/06 09:15:58;;;;;;;7.95;6.60;;;24.30;99.90;;;;;;4996342;28;20234;-85
2022/09/06 09:18:32;;;;;;;8.02;6.50;;;24.10;99.90;;;;;;4978975;28;20219;-93
2022/09/06 09:20:58;;;;;;;8.02;6.40;;;24.30;99.90;;;;;;4994518;28;20216;-87
2022/09/06 09:23:24;;;;;;;7.53;6.53;;;24.80;99.90;;;;;;4996209;28;20211;-86
2022/09/06 09:25:52;;;;;;;8.98;6.68;;;25.30;99.90;;;;;;4995688;28;20176;-84
2022/09/06 09:28:22;;;;;;;8.23;6.93;;;25.80;99.90;;;;;;4995017;28;20235;-85
2022/09/06 09:30:53;;;;;;;6.85;6.25;;;25.90;99.90;;;;;;4994361;28;20223;-85
2022/09/06 09:33:38;;;;;;;5.93;5.40;;;26.30;99.90;;;;;;5010967;28;20669;-87
2022/09/06 09:36:11;;;;;;;6.55;5.93;;;26.10;99.90;;;;;;4994349;28;20228;-88
2022/09/06 09:38:43;;;;;;;7.78;6.20;;;25.20;99.90;;;;;;4994753;28;20222;-83
2022/09/06 09:41:22;;;;;;;7.35;5.57;;;26.10;99.90;;;;;;4994464;28;20222;-88
2022/09/06 09:44:04;;;;;;;7.53;4.80;;;26.40;99.90;;;;;;4994817;28;20167;-89
2022/09/06 09:46:35;;;;;;;7.70;5.22;;;26.00;99.90;;;;;;4994538;28;20184;-85
2022/09/06 09:49:04;;;;;;;5.47;4.95;;;25.70;99.90;;;;;;4994681;28;20303;-87
2022/09/06 09:51:52;;;;;;;8.52;5.22;;;25.40;99.90;;;;;;4994198;28;20701;-81
2022/09/06 09:54:30;;;;;;;5.13;4.60;;;25.80;99.90;;;;;;4978003;28;20582;-86
2022/09/06 09:56:56;;;;;;;6.03;4.60;;;26.60;99.90;;;;;;4995586;28;20224;-89
2022/09/06 09:59:28;;;;;;;6.22;5.00;;;26.50;99.90;;;;;;4994620;28;20215;-85
2022/09/06 10:02:00;;;;;;;4.97;4.47;;;26.30;99.90;;;;;;4995311;28;20176;-89
2022/09/06 10:04:32;;;;;;;9.82;5.63;;;26.10;99.90;;;;;;4995802;28;20180;-88
2022/09/06 10:07:13;;;;;;;5.55;5.07;;;25.80;99.90;;;;;;5010283;28;20227;-86
2022/09/06 10:09:42;;;;;;;7.05;5.55;;;26.50;99.90;;;;;;4994466;28;20243;-91
2022/09/06 10:12:17;;;;;;;5.65;5.05;;;26.40;99.90;;;;;;4995009;28;20231;-85
2022/09/06 10:14:47;;;;;;;5.97;4.50;;;26.40;99.90;;;;;;4993968;28;20297;-86
2022/09/06 10:17:31;;;;;;;5.68;5.18;;;26.50;99.90;;;;;;4994813;28;20231;-86
2022/09/06 10:20:06;;;;;;;6.90;5.53;;;26.90;99.90;;;;;;4995116;28;20176;-88
2022/09/06 10:22:50;;;;;;;5.25;3.20;;;26.60;99.90;;;;;;4990910;28;20187;-86
2022/09/06 10:25:38;;;;;;;5.00;4.20;;;26.10;99.90;;;;;;5014968;28;20227;-88
2022/09/06 10:28:30;;;;;;;4.85;4.35;;;25.80;99.90;;;;;;5014856;28;20215;-86
2022/09/06 10:31:25;;;;;;;5.00;4.43;;;26.10;99.90;;;;;;5014740;28;20230;-89
2022/09/06 10:34:02;;;;;;;5.07;4.57;;;26.50;99.90;;;;;;5013633;28;20696;-88
2022/09/06 10:36:38;;;;;;;4.93;4.50;;;26.70;99.90;;;;;;5014354;28;20227;-85
2022/09/06 10:39:50;;;;;;;5.70;4.63;;;26.80;99.90;;;;;;5014305;28;20301;-90
2022/09/06 10:42:32;;;;;;;5.82;5.20;;;26.60;99.90;;;;;;4918631;29;20599;-86
2022/09/06 10:45:51;;;;;;;4.85;4.32;;;27.00;99.90;;;;;;5005466;28;20273;-85
2022/09/06 10:48:26;;;;;;;4.50;4.10;;;27.10;99.90;;;;;;4995918;28;20755;-84
2022/09/06 10:51:07;;;;;;;4.95;4.32;;;26.40;99.90;;;;;;5014259;28;20254;-85
2022/09/06 10:53:38;;;;;;;4.15;3.80;;;25.70;99.90;;;;;;5013362;28;20225;-88
2022/09/06 10:56:29;;;;;;;4.05;3.60;;;26.00;99.90;;;;;;5013881;28;20203;-86
2022/09/06 10:59:16;;;;;;;4.63;4.22;;;26.10;99.90;;;;;;4999597;28;20245;-89
2022/09/06 11:02:04;;;;;;;3.95;3.55;;;26.70;99.90;;;;;;5015502;28;20187;-89
2022/09/06 11:04:37;;;;;;;4.70;4.30;;;27.10;99.90;;;;;;5014693;28;20240;-86
2022/09/06 11:07:28;;;;;;;6.47;5.18;;;27.30;99.90;;;;;;5013771;28;20254;-91
2022/09/06 11:09:56;;;;;;;8.38;4.70;;;27.30;99.90;;;;;;5013891;28;20326;-89
2022/09/06 11:12:40;;;;;;;15.95;4.50;;;26.90;99.90;;;;;;5014281;28;20230;-86
2022/09/06 11:15:10;;;;;;;5.47;4.82;;;26.90;99.90;;;;;;5014332;28;20318;-91
2022/09/06 11:18:06;;;;;;;5.45;4.07;;;26.90;99.90;;;;;;5014478;28;20223;-90
2022/09/06 11:20:44;;;;;;;3.72;3.22;;;26.60;99.90;;;;;;5010539;28;20212;-93
2022/09/06 11:23:44;;;;;;;6.03;4.40;;;26.60;99.90;;;;;;5015121;28;20261;-88
2022/09/06 11:26:28;;;;;;;5.57;5.07;;;26.90;99.90;;;;;;5012799;28;20214;-92
2022/09/06 11:28:57;;;;;;;6.75;4.93;;;27.20;99.90;;;;;;5013811;28;20167;-89
2022/09/06 11:31:30;;;;;;;7.45;4.88;;;27.20;99.90;;;;;;5017141;28;20241;-92
2022/09/06 11:34:26;;;;;;;7.32;5.80;;;27.00;99.90;;;;;;5013492;28;20215;-92
2022/09/06 11:37:01;;;;;;;6.63;5.38;;;26.90;99.90;;;;;;5020251;28;20239;-88
2022/09/06 11:39:36;;;;;;;6.00;4.88;;;27.00;99.90;;;;;;5029450;28;20219;-87
2022/09/06 11:42:29;;;;;;;5.97;5.30;;;26.90;99.90;;;;;;5010499;28;20299;-86
2022/09/06 11:44:55;;;;;;;6.85;5.25;;;26.70;99.90;;;;;;4983719;28;20211;-85
2022/09/06 11:47:36;;;;;;;4.68;4.28;;;26.70;99.90;;;;;;5009035;28;20254;-90
2022/09/06 11:50:17;;;;;;;5.47;4.30;;;26.80;99.90;;;;;;4998175;28;20191;-90
2022/09/06 11:53:22;;;;;;;4.68;3.35;;;26.70;99.90;;;;;;5013121;28;20621;-90
2022/09/06 11:55:49;;;;;;;3.85;2.92;;;27.10;99.90;;;;;;4952293;29;20221;-82
2022/09/06 11:58:15;;;;;;;2.67;2.47;;;27.40;99.90;;;;;;4998680;28;20238;-82
2022/09/06 12:00:41;;;;;;;5.80;3.70;;;26.60;99.90;;;;;;5007468;28;20227;-83
2022/09/06 12:03:42;;;;;;;3.53;3.22;;;26.50;99.90;;;;;;5002459;28;20245;-83
2022/09/06 12:06:15;;;;;;;4.85;3.40;;;26.60;99.90;;;;;;5007780;28;20220;-87
2022/09/06 12:08:42;;;;;;;4.05;3.65;;;26.50;99.90;;;;;;4999305;28;20238;-83
2022/09/06 12:11:28;;;;;;;4.75;4.03;;;26.70;99.90;;;;;;5010808;28;20231;-88
2022/09/06 12:13:59;;;;;;;4.07;3.78;;;26.90;99.90;;;;;;5012243;28;20171;-81
2022/09/06 12:17:00;;;;;;;5.65;4.03;;;27.20;99.90;;;;;;5012781;28;20257;-82
2022/09/06 12:19:41;;;;;;;4.22;3.60;;;27.10;99.90;;;;;;4992708;28;20661;-84
2022/09/06 12:22:25;;;;;;;4.22;3.83;;;27.40;99.90;;;;;;4990960;28;20220;-85
2022/09/06 12:24:59;;;;;;;5.70;3.85;;;27.50;99.90;;;;;;4992952;28;20219;-84
2022/09/06 12:27:30;;;;;;;4.93;3.97;;;27.30;99.90;;;;;;5005020;28;20219;-87
2022/09/06 12:29:59;;;;;;;4.72;3.70;;;27.20;99.90;;;;;;5008170;28;20697;-84
2022/09/06 12:32:36;;;;;;;5.85;4.32;;;27.30;99.90;;;;;;4996568;28;20214;-86
2022/09/06 12:35:04;;;;;;;5.15;3.92;;;27.50;99.90;;;;;;5011306;28;20711;-83
2022/09/06 12:37:33;;;;;;;4.43;3.60;;;27.70;99.90;;;;;;5012593;28;20302;-85
2022/09/06 12:39:59;;;;;;;3.53;3.22;;;27.90;99.90;;;;;;5010892;28;20215;-84
2022/09/06 12:42:25;;;;;;;3.30;3.00;;;28.10;99.90;;;;;;5011957;28;20211;-83
2022/09/06 12:44:54;;;;;;;3.50;3.20;;;28.20;99.90;;;;;;5012013;28;20290;-82
2022/09/06 12:47:30;;;;;;;5.82;3.40;;;27.80;99.90;;;;;;5010439;28;20245;-83
2022/09/06 12:50:18;;;;;;;4.07;3.67;;;27.70;99.90;;;;;;5011992;28;20179;-80
2022/09/06 12:52:55;;;;;;;3.80;3.15;;;27.60;99.90;;;;;;5012420;28;20207;-83
2022/09/06 12:55:23;;;;;;;4.57;3.50;;;27.30;99.90;;;;;;5011037;28;20718;-81
2022/09/06 12:57:53;;;;;;;4.85;4.25;;;27.20;99.90;;;;;;5007145;28;20244;-84
2022/09/06 13:00:20;;;;;;;5.93;4.00;;;27.30;99.90;;;;;;5003866;28;20219;-86
2022/09/06 13:03:15;;;;;;;4.55;4.07;;;27.50;99.90;;;;;;5011801;28;20219;-82
2022/09/06 13:05:44;;;;;;;5.70;4.55;;;28.10;99.90;;;;;;5011526;28;20241;-82
2022/09/06 13:08:18;;;;;;;6.28;4.55;;;28.20;99.90;;;;;;5011726;28;20253;-83